Time;durP1;ratioP1;P1;durP2;ratioP2;P2;SDS_P1;SDS_P2;PMS_P1;PMS_P2;Temp;Humidity;BMP_temperature;BMP_pressure;BME280_temperature;BME280_humidity;BME280_pressure;Samples;Min_cycle;Max_cycle;Signal;HPM_P1;HPM_P2
2023/05/02 00:01:53;;;;;;;25.17;17.60;;;11.00;99.90;;;;;;5055577;28;20728;-51
2023/05/02 00:04:20;;;;;;;24.43;18.00;;;11.00;99.90;;;;;;5079537;28;20197;-50
2023/05/02 00:06:47;;;;;;;25.53;18.97;;;11.00;99.90;;;;;;5082835;28;20194;-55
2023/05/02 00:09:15;;;;;;;26.60;18.90;;;11.00;99.90;;;;;;5082785;28;20559;-50
2023/05/02 00:11:43;;;;;;;25.50;19.27;;;11.00;99.90;;;;;;5075983;28;20190;-52
2023/05/02 00:14:10;;;;;;;27.23;19.67;;;11.00;99.90;;;;;;5080723;28;20246;-51
2023/05/02 00:16:37;;;;;;;26.63;19.57;;;11.00;99.90;;;;;;5052091;28;20879;-52
2023/05/02 00:19:03;;;;;;;31.63;20.47;;;11.00;99.90;;;;;;5083055;28;20213;-53
2023/05/02 00:21:31;;;;;;;27.57;19.37;;;11.00;99.90;;;;;;5080974;28;20189;-53
2023/05/02 00:23:59;;;;;;;27.90;19.53;;;11.00;99.90;;;;;;5084748;28;20266;-54
2023/05/02 00:26:26;;;;;;;30.43;20.33;;;11.00;99.90;;;;;;5073429;28;20202;-49
2023/05/02 00:28:55;;;;;;;32.43;21.30;;;11.00;99.90;;;;;;5073150;28;20192;-54
2023/05/02 00:31:22;;;;;;;29.23;20.63;;;11.10;99.90;;;;;;5063021;28;20206;-51
2023/05/02 00:33:48;;;;;;;28.77;21.10;;;11.00;99.90;;;;;;5070058;28;20918;-51
2023/05/02 00:36:16;;;;;;;29.97;20.70;;;11.10;99.90;;;;;;5083314;28;20213;-50
2023/05/02 00:38:44;;;;;;;33.20;21.37;;;11.00;99.90;;;;;;5082024;28;20301;-52
2023/05/02 00:41:11;;;;;;;30.10;20.77;;;11.00;99.90;;;;;;5075348;28;20237;-52
2023/05/02 00:43:39;;;;;;;36.70;22.03;;;11.00;99.90;;;;;;5072904;28;20178;-52
2023/05/02 00:46:08;;;;;;;29.90;20.83;;;11.10;99.90;;;;;;5080050;28;20277;-49
2023/05/02 00:48:35;;;;;;;29.37;21.40;;;11.10;99.90;;;;;;5057749;28;20275;-48
2023/05/02 00:51:05;;;;;;;31.27;20.57;;;11.10;99.90;;;;;;5084002;28;20635;-50
2023/05/02 00:53:32;;;;;;;30.47;20.87;;;11.10;99.90;;;;;;5079059;28;20840;-51
2023/05/02 00:55:59;;;;;;;28.87;19.00;;;11.10;99.90;;;;;;5063021;28;20196;-51
2023/05/02 00:58:28;;;;;;;28.03;18.50;;;11.00;99.90;;;;;;5071857;28;20217;-50
2023/05/02 01:01:07;;;;;;;25.03;17.97;;;11.00;99.90;;;;;;5082207;28;20656;-54
2023/05/02 01:03:45;;;;;;;31.57;19.17;;;11.00;99.90;;;;;;5059445;28;20310;-49
2023/05/02 01:06:28;;;;;;;27.20;19.17;;;11.00;99.90;;;;;;5081808;28;20682;-48
2023/05/02 01:09:07;;;;;;;26.27;15.60;;;11.00;99.90;;;;;;5081557;28;20219;-55
2023/05/02 01:11:43;;;;;;;29.30;17.67;;;11.00;99.90;;;;;;5050535;28;20297;-49
2023/05/02 01:14:11;;;;;;;28.80;17.93;;;10.90;99.90;;;;;;5079098;28;20209;-50
2023/05/02 01:16:40;;;;;;;23.27;15.07;;;10.90;99.90;;;;;;5083012;28;20209;-53
2023/05/02 01:19:13;;;;;;;26.80;15.93;;;10.90;99.90;;;;;;5057741;28;21020;-51
2023/05/02 01:21:41;;;;;;;27.20;16.17;;;10.80;99.90;;;;;;5080398;28;20205;-50
2023/05/02 01:24:14;;;;;;;26.73;16.43;;;10.80;99.90;;;;;;5073743;28;20205;-51
2023/05/02 01:26:49;;;;;;;22.70;14.87;;;10.80;99.90;;;;;;5075367;28;20205;-51
2023/05/02 01:29:20;;;;;;;25.03;15.23;;;10.70;99.90;;;;;;5079824;28;20208;-55
2023/05/02 01:31:50;;;;;;;24.90;15.27;;;10.70;99.90;;;;;;5080417;28;20185;-50
2023/05/02 01:34:19;;;;;;;23.53;14.77;;;10.70;99.90;;;;;;5081001;28;20202;-51
2023/05/02 01:36:48;;;;;;;24.03;13.80;;;10.70;99.90;;;;;;5057598;28;20210;-48
2023/05/02 01:39:19;;;;;;;21.17;13.63;;;10.70;99.90;;;;;;5072950;28;20217;-53
2023/05/02 01:41:49;;;;;;;21.13;13.27;;;10.60;99.90;;;;;;5076868;28;20186;-51
2023/05/02 01:44:18;;;;;;;22.50;13.47;;;10.60;99.90;;;;;;5073245;28;20190;-51
2023/05/02 01:46:46;;;;;;;21.67;13.50;;;10.60;99.90;;;;;;5079339;28;20218;-50
2023/05/02 01:49:12;;;;;;;21.87;13.37;;;10.60;99.90;;;;;;5074877;28;20204;-54
2023/05/02 01:51:45;;;;;;;21.67;13.10;;;10.60;99.90;;;;;;5054717;28;20210;-51
2023/05/02 01:54:14;;;;;;;22.33;12.87;;;10.60;99.90;;;;;;5074141;28;20247;-54
2023/05/02 01:56:43;;;;;;;22.13;13.90;;;10.60;99.90;;;;;;5080819;28;20834;-50
2023/05/02 01:59:13;;;;;;;21.27;13.13;;;10.60;99.90;;;;;;5070873;28;20241;-50
2023/05/02 02:01:44;;;;;;;19.47;12.60;;;10.50;99.90;;;;;;5082419;28;20276;-48
2023/05/02 02:04:16;;;;;;;23.27;12.70;;;10.50;99.90;;;;;;5072852;28;20268;-52
2023/05/02 02:06:48;;;;;;;23.83;12.33;;;10.50;99.90;;;;;;5053658;28;20722;-50
2023/05/02 02:09:15;;;;;;;19.57;11.80;;;10.50;99.90;;;;;;5078485;28;20186;-50
2023/05/02 02:11:46;;;;;;;16.37;10.27;;;10.50;99.90;;;;;;5082013;28;20190;-47
2023/05/02 02:14:19;;;;;;;16.23;9.37;;;10.50;99.90;;;;;;5072784;28;20607;-52
2023/05/02 02:16:49;;;;;;;12.03;8.50;;;10.40;99.90;;;;;;5080858;28;20596;-49
2023/05/02 02:19:17;;;;;;;12.73;8.23;;;10.40;99.90;;;;;;5076838;28;20198;-47
2023/05/02 02:21:46;;;;;;;13.03;7.10;;;10.40;99.90;;;;;;5055458;28;20207;-48
2023/05/02 02:24:18;;;;;;;12.97;7.40;;;10.40;99.90;;;;;;5081407;28;20194;-51
2023/05/02 02:26:46;;;;;;;10.37;7.27;;;10.40;99.90;;;;;;5081313;28;20627;-50
2023/05/02 02:29:12;;;;;;;9.33;7.57;;;10.40;99.90;;;;;;5072824;28;21238;-50
2023/05/02 02:31:40;;;;;;;9.03;6.07;;;10.30;99.90;;;;;;5080017;28;20190;-49
2023/05/02 02:34:08;;;;;;;3.73;3.43;;;10.30;99.90;;;;;;5070868;28;20197;-49
2023/05/02 02:36:45;;;;;;;4.60;3.30;;;10.10;99.90;;;;;;5057118;28;20247;-48
2023/05/02 02:39:20;;;;;;;5.67;2.63;;;9.90;99.90;;;;;;5080330;28;20198;-49
2023/05/02 02:41:59;;;;;;;8.33;3.40;;;9.80;99.90;;;;;;5075930;28;20251;-52
2023/05/02 02:44:34;;;;;;;9.67;4.00;;;9.60;99.90;;;;;;5079960;28;20563;-49
2023/05/02 02:47:14;;;;;;;9.20;2.80;;;9.60;99.90;;;;;;5060923;28;20222;-54
2023/05/02 02:49:49;;;;;;;5.73;3.53;;;9.40;99.90;;;;;;5076296;28;20182;-48
2023/05/02 02:52:23;;;;;;;10.13;3.63;;;9.30;99.90;;;;;;5060786;28;20236;-48
2023/05/02 02:54:56;;;;;;;8.43;3.63;;;9.20;99.90;;;;;;5078413;28;20190;-49
2023/05/02 02:57:33;;;;;;;11.60;3.03;;;9.10;99.90;;;;;;5084947;28;20213;-50
2023/05/02 03:00:07;;;;;;;12.10;4.30;;;9.00;99.90;;;;;;5075146;28;20213;-47
2023/05/02 03:02:36;;;;;;;16.33;4.00;;;9.00;99.90;;;;;;5067235;28;20206;-49
2023/05/02 03:05:07;;;;;;;21.03;4.30;;;8.90;99.90;;;;;;5080531;28;20862;-50
2023/05/02 03:07:34;;;;;;;14.80;4.50;;;8.90;99.90;;;;;;5065718;28;20582;-49
2023/05/02 03:10:04;;;;;;;10.70;3.63;;;8.80;99.90;;;;;;5080264;28;20178;-49
2023/05/02 03:12:33;;;;;;;13.27;4.13;;;8.60;99.90;;;;;;5079305;28;20188;-51
2023/05/02 03:15:14;;;;;;;12.97;3.57;;;8.40;99.90;;;;;;5073526;28;20189;-52
2023/05/02 03:17:41;;;;;;;14.13;3.50;;;8.30;99.90;;;;;;5067104;28;20245;-48
2023/05/02 03:20:10;;;;;;;13.57;3.20;;;8.20;99.90;;;;;;5081571;28;20300;-51
2023/05/02 03:22:40;;;;;;;17.73;3.77;;;8.10;99.90;;;;;;5061581;28;20392;-49
2023/05/02 03:25:08;;;;;;;8.37;3.90;;;8.10;99.90;;;;;;5072064;28;20655;-50
2023/05/02 03:27:35;;;;;;;16.27;3.90;;;8.00;99.90;;;;;;5081438;28;20234;-51
2023/05/02 03:30:05;;;;;;;12.53;3.40;;;8.00;99.90;;;;;;5074292;28;20773;-51
2023/05/02 03:32:32;;;;;;;16.17;3.43;;;8.00;99.90;;;;;;5062010;28;20293;-52
2023/05/02 03:34:59;;;;;;;12.60;3.80;;;8.00;99.90;;;;;;5081898;28;20190;-49
2023/05/02 03:37:35;;;;;;;13.30;3.73;;;7.90;99.90;;;;;;5070996;28;20209;-51
2023/05/02 03:40:02;;;;;;;11.07;3.27;;;7.90;99.90;;;;;;5075913;28;20226;-51
2023/05/02 03:42:29;;;;;;;13.13;3.27;;;7.90;99.90;;;;;;5075715;28;20190;-47
2023/05/02 03:44:58;;;;;;;9.73;3.40;;;7.80;99.90;;;;;;5074767;28;20193;-51
2023/05/02 03:47:27;;;;;;;10.33;3.30;;;7.80;99.90;;;;;;5082195;28;20213;-52
2023/05/02 03:49:54;;;;;;;10.63;3.40;;;7.80;99.90;;;;;;5071362;28;20227;-51
2023/05/02 03:52:22;;;;;;;9.00;3.30;;;7.80;99.90;;;;;;5083772;28;20248;-50
2023/05/02 03:54:52;;;;;;;11.60;3.47;;;7.70;99.90;;;;;;5058544;28;20210;-52
2023/05/02 03:57:20;;;;;;;17.97;4.87;;;7.80;99.90;;;;;;5076146;28;20222;-53
2023/05/02 03:59:47;;;;;;;12.13;3.20;;;7.70;99.90;;;;;;5077762;28;20328;-55
2023/05/02 04:02:24;;;;;;;17.60;3.87;;;7.70;99.90;;;;;;5074367;28;20237;-53
2023/05/02 04:04:51;;;;;;;13.43;3.50;;;7.80;99.90;;;;;;5073771;28;20500;-55
2023/05/02 04:07:20;;;;;;;11.03;3.43;;;7.70;99.90;;;;;;5076618;28;20274;-53
2023/05/02 04:09:56;;;;;;;11.60;3.80;;;7.70;99.90;;;;;;5054372;28;20901;-51
2023/05/02 04:12:23;;;;;;;13.37;3.10;;;7.70;99.90;;;;;;5077637;28;20285;-53
2023/05/02 04:14:51;;;;;;;13.97;3.83;;;7.70;99.90;;;;;;5079890;28;20936;-50
2023/05/02 04:17:21;;;;;;;9.33;3.47;;;7.70;99.90;;;;;;5075751;28;20221;-54
2023/05/02 04:19:50;;;;;;;12.97;3.57;;;7.70;99.90;;;;;;5071434;28;20287;-51
2023/05/02 04:22:18;;;;;;;9.53;2.97;;;7.70;99.90;;;;;;5076550;28;20198;-51
2023/05/02 04:24:51;;;;;;;17.53;3.77;;;7.70;99.90;;;;;;5044509;28;20202;-51
2023/05/02 04:27:20;;;;;;;13.30;3.30;;;7.70;99.90;;;;;;5080256;28;20699;-52
2023/05/02 04:29:48;;;;;;;14.47;2.73;;;7.70;99.90;;;;;;5072662;28;20278;-56
2023/05/02 04:32:15;;;;;;;13.70;3.37;;;7.70;99.90;;;;;;5083590;28;20194;-54
2023/05/02 04:34:42;;;;;;;11.13;3.27;;;7.70;99.90;;;;;;5070945;28;20230;-50
2023/05/02 04:37:10;;;;;;;7.97;3.70;;;7.70;99.90;;;;;;5067940;28;20231;-53
2023/05/02 04:39:38;;;;;;;10.80;3.13;;;7.70;99.90;;;;;;5058365;28;20200;-52
2023/05/02 04:42:11;;;;;;;10.43;3.10;;;7.70;99.90;;;;;;5061756;28;20202;-53
2023/05/02 04:44:48;;;;;;;9.87;3.10;;;7.70;99.90;;;;;;5077101;28;20749;-52
2023/05/02 04:47:16;;;;;;;9.77;2.90;;;7.70;99.90;;;;;;5082612;28;20217;-53
2023/05/02 04:49:44;;;;;;;16.40;3.60;;;7.70;99.90;;;;;;5064272;28;20221;-50
2023/05/02 04:52:12;;;;;;;10.67;3.73;;;7.70;99.90;;;;;;5068088;28;21114;-50
2023/05/02 04:54:39;;;;;;;11.80;3.20;;;7.70;99.90;;;;;;5069198;28;20899;-53
2023/05/02 04:57:06;;;;;;;5.67;2.20;;;7.60;99.90;;;;;;5075196;28;20229;-52
2023/05/02 04:59:37;;;;;;;18.77;3.80;;;7.60;99.90;;;;;;5074782;28;20482;-50
2023/05/02 05:02:07;;;;;;;8.60;2.80;;;7.60;99.90;;;;;;5081572;28;20547;-52
2023/05/02 05:04:36;;;;;;;10.03;3.07;;;7.50;99.90;;;;;;5074944;28;20182;-51
2023/05/02 05:07:03;;;;;;;8.87;2.87;;;7.50;99.90;;;;;;5060206;28;20249;-49
2023/05/02 05:09:31;;;;;;;12.87;3.27;;;7.50;99.90;;;;;;5071319;28;20288;-53
2023/05/02 05:11:58;;;;;;;15.93;3.97;;;7.50;99.90;;;;;;5064232;28;20199;-50
2023/05/02 05:14:25;;;;;;;9.73;3.00;;;7.50;99.90;;;;;;5064950;28;20898;-49
2023/05/02 05:16:54;;;;;;;7.03;2.70;;;7.50;99.90;;;;;;5073672;28;20779;-53
2023/05/02 05:19:23;;;;;;;13.27;2.87;;;7.50;99.90;;;;;;5070774;28;20201;-52
2023/05/02 05:21:50;;;;;;;11.93;3.00;;;7.50;99.90;;;;;;5067588;28;20236;-53
2023/05/02 05:24:19;;;;;;;10.90;2.97;;;7.40;99.90;;;;;;5070916;28;20202;-53
2023/05/02 05:26:47;;;;;;;13.17;2.83;;;7.50;99.90;;;;;;5069703;28;20390;-51
2023/05/02 05:29:14;;;;;;;6.67;3.00;;;7.50;99.90;;;;;;5057083;28;20235;-51
2023/05/02 05:31:42;;;;;;;8.10;2.77;;;7.50;99.90;;;;;;5076537;28;20216;-53
2023/05/02 05:34:11;;;;;;;9.77;3.03;;;7.50;99.90;;;;;;5070678;28;20663;-52
2023/05/02 05:36:41;;;;;;;7.20;3.00;;;7.50;99.90;;;;;;5068119;28;20229;-52
2023/05/02 05:39:07;;;;;;;5.97;2.80;;;7.50;99.90;;;;;;5075917;28;20200;-47
2023/05/02 05:41:37;;;;;;;7.93;2.17;;;7.50;99.90;;;;;;5066440;28;20219;-53
2023/05/02 05:44:09;;;;;;;9.53;2.63;;;7.50;99.90;;;;;;5043334;28;20248;-47
2023/05/02 05:46:37;;;;;;;10.23;2.80;;;7.50;99.90;;;;;;5071602;28;20336;-53
2023/05/02 05:49:06;;;;;;;13.00;2.87;;;7.50;99.90;;;;;;5059239;28;20201;-46
2023/05/02 05:51:33;;;;;;;10.60;2.30;;;7.50;99.90;;;;;;5079222;28;20205;-51
2023/05/02 05:54:02;;;;;;;6.20;2.40;;;7.50;99.90;;;;;;5067742;28;20225;-49
2023/05/02 05:56:28;;;;;;;10.87;2.30;;;7.50;99.90;;;;;;5070525;28;22579;-48
2023/05/02 05:59:02;;;;;;;7.87;2.57;;;7.50;99.90;;;;;;5055726;28;20216;-48
2023/05/02 06:01:30;;;;;;;5.63;1.90;;;7.50;99.90;;;;;;5059437;28;20343;-49
2023/05/02 06:03:57;;;;;;;13.57;2.40;;;7.50;99.90;;;;;;5070412;28;20232;-52
2023/05/02 06:06:26;;;;;;;9.20;2.07;;;7.50;99.90;;;;;;5059487;28;20285;-47
2023/05/02 06:08:52;;;;;;;9.07;2.30;;;7.50;99.90;;;;;;5071045;28;20202;-51
2023/05/02 06:11:23;;;;;;;8.07;2.50;;;7.50;99.90;;;;;;5075351;28;20701;-45
2023/05/02 06:14:11;;;;;;;6.27;2.10;;;7.60;99.90;;;;;;5051022;28;20233;-52
2023/05/02 06:16:38;;;;;;;5.57;2.00;;;7.60;99.90;;;;;;5062493;28;20226;-55
2023/05/02 06:19:05;;;;;;;9.93;2.13;;;7.60;99.90;;;;;;5070448;28;20206;-52
2023/05/02 06:21:32;;;;;;;5.47;2.03;;;7.60;99.90;;;;;;5077307;28;20218;-46
2023/05/02 06:23:59;;;;;;;12.10;2.63;;;7.60;99.90;;;;;;5070436;28;20209;-52
2023/05/02 06:26:28;;;;;;;8.70;2.20;;;7.60;99.90;;;;;;5074812;28;20255;-53
2023/05/02 06:28:56;;;;;;;8.07;2.10;;;7.70;99.90;;;;;;5042599;28;20683;-54
2023/05/02 06:31:22;;;;;;;7.53;2.50;;;7.60;99.90;;;;;;5076677;28;20214;-50
2023/05/02 06:33:50;;;;;;;7.03;2.03;;;7.60;99.90;;;;;;5073507;28;20293;-49
2023/05/02 06:36:17;;;;;;;6.63;1.97;;;7.60;99.90;;;;;;5082195;28;20906;-50
2023/05/02 06:38:44;;;;;;;5.67;2.33;;;7.60;99.90;;;;;;5079385;28;20691;-50
2023/05/02 06:41:13;;;;;;;6.43;2.10;;;7.60;99.90;;;;;;5064571;28;20222;-56
2023/05/02 06:43:43;;;;;;;5.07;2.10;;;7.60;99.90;;;;;;5057408;28;20206;-52
2023/05/02 06:46:10;;;;;;;8.57;2.37;;;7.50;99.90;;;;;;5082454;28;20243;-53
2023/05/02 06:48:38;;;;;;;5.77;1.83;;;7.50;99.90;;;;;;5082130;28;20225;-46
2023/05/02 06:51:05;;;;;;;9.60;1.73;;;7.60;99.90;;;;;;5084448;28;20194;-54
2023/05/02 06:53:33;;;;;;;6.13;2.20;;;7.60;99.90;;;;;;5084983;28;20407;-48
2023/05/02 06:56:24;;;;;;;4.50;1.70;;;7.70;99.90;;;;;;5063372;28;20224;-52
2023/05/02 06:58:52;;;;;;;5.00;1.50;;;7.80;99.90;;;;;;5081512;28;20186;-55
2023/05/02 07:01:19;;;;;;;3.97;1.60;;;7.80;99.90;;;;;;5052033;28;20480;-48
2023/05/02 07:03:47;;;;;;;6.83;1.97;;;7.80;99.90;;;;;;5086202;28;20252;-48
2023/05/02 07:06:14;;;;;;;10.47;1.90;;;7.80;99.90;;;;;;5082596;28;20194;-55
2023/05/02 07:08:41;;;;;;;5.83;1.57;;;7.90;99.90;;;;;;5079449;28;20841;-54
2023/05/02 07:11:08;;;;;;;5.67;1.63;;;7.90;99.90;;;;;;5066883;28;20208;-56
2023/05/02 07:13:34;;;;;;;7.23;2.20;;;7.90;99.90;;;;;;5077745;28;20979;-47
2023/05/02 07:16:02;;;;;;;4.20;1.43;;;7.90;99.90;;;;;;5063099;28;20286;-53
2023/05/02 07:18:29;;;;;;;2.93;1.50;;;7.90;99.90;;;;;;5072935;28;20241;-51
2023/05/02 07:20:56;;;;;;;3.20;1.30;;;7.90;99.90;;;;;;5084917;28;20241;-53
2023/05/02 07:23:23;;;;;;;3.23;1.30;;;7.90;99.90;;;;;;5063589;28;20210;-53
2023/05/02 07:25:50;;;;;;;5.63;1.47;;;7.90;99.90;;;;;;5078956;28;20201;-48
2023/05/02 07:28:17;;;;;;;5.30;1.30;;;7.90;99.90;;;;;;5054095;28;21284;-47
2023/05/02 07:30:44;;;;;;;5.03;1.30;;;7.90;99.90;;;;;;5065576;28;20731;-47
2023/05/02 07:33:14;;;;;;;6.63;1.30;;;7.90;99.90;;;;;;5080483;28;20549;-56
2023/05/02 07:35:42;;;;;;;4.23;1.20;;;8.00;99.90;;;;;;5073149;28;20217;-56
2023/05/02 07:38:08;;;;;;;2.97;2.60;;;8.00;99.90;;;;;;5067282;27;20225;-52
2023/05/02 07:40:35;;;;;;;7.27;1.40;;;8.10;99.90;;;;;;5074600;28;20245;-49
2023/05/02 07:43:02;;;;;;;4.20;1.10;;;8.10;99.90;;;;;;5062569;28;20190;-47
2023/05/02 07:45:29;;;;;;;6.07;1.60;;;8.20;99.90;;;;;;5079202;28;20660;-47
2023/05/02 07:47:56;;;;;;;6.97;1.43;;;8.20;99.90;;;;;;5055018;28;20237;-55
2023/05/02 07:50:26;;;;;;;4.27;1.23;;;8.20;99.90;;;;;;5081177;28;20194;-50
2023/05/02 07:52:53;;;;;;;4.53;1.40;;;8.20;99.90;;;;;;5073297;28;20660;-52
2023/05/02 07:55:20;;;;;;;3.77;1.50;;;8.20;99.90;;;;;;5075813;28;20214;-53
2023/05/02 07:57:46;;;;;;;3.73;1.70;;;8.20;99.90;;;;;;5068489;28;20226;-49
2023/05/02 08:00:15;;;;;;;5.07;1.23;;;8.20;99.90;;;;;;5072484;28;20206;-52
2023/05/02 08:02:42;;;;;;;8.10;1.40;;;8.20;99.90;;;;;;5057038;28;20216;-49
2023/05/02 08:05:09;;;;;;;8.47;1.80;;;8.30;99.90;;;;;;5074644;28;20269;-52
2023/05/02 08:07:37;;;;;;;5.87;1.70;;;8.30;99.90;;;;;;5079697;28;20218;-49
2023/05/02 08:10:04;;;;;;;2.43;1.27;;;8.30;99.90;;;;;;5074664;28;20422;-51
2023/05/02 08:12:31;;;;;;;5.43;1.20;;;8.40;99.90;;;;;;5070890;28;20660;-48
2023/05/02 08:14:57;;;;;;;1.80;1.17;;;8.50;99.90;;;;;;5066694;28;20198;-51
2023/05/02 08:17:24;;;;;;;5.43;1.50;;;8.50;99.90;;;;;;5062247;28;20214;-49
2023/05/02 08:19:51;;;;;;;4.93;1.70;;;8.60;99.90;;;;;;5064037;28;20749;-52
2023/05/02 08:22:17;;;;;;;7.00;1.30;;;8.70;99.90;;;;;;5079940;28;20212;-49
2023/05/02 08:24:45;;;;;;;4.60;1.50;;;8.70;99.90;;;;;;5082479;28;20698;-54
2023/05/02 08:27:12;;;;;;;5.00;1.30;;;8.70;99.90;;;;;;5060094;28;20904;-51
2023/05/02 08:29:39;;;;;;;6.97;2.70;;;8.70;99.90;;;;;;5073739;28;20607;-51
2023/05/02 08:32:06;;;;;;;9.37;2.10;;;8.80;99.90;;;;;;5041865;28;20812;-50
2023/05/02 08:34:32;;;;;;;5.47;1.93;;;8.70;99.90;;;;;;5067863;28;20198;-45
2023/05/02 08:37:00;;;;;;;2.73;1.10;;;8.70;99.90;;;;;;5076507;28;20743;-45
2023/05/02 08:39:26;;;;;;;4.27;1.07;;;8.80;99.90;;;;;;5079646;28;20938;-47
2023/05/02 08:41:55;;;;;;;5.87;1.80;;;8.90;99.90;;;;;;5062257;28;20213;-49
2023/05/02 08:44:21;;;;;;;6.93;1.80;;;9.00;99.90;;;;;;5074320;28;20197;-49
2023/05/02 08:46:50;;;;;;;3.77;1.40;;;9.00;99.90;;;;;;5062846;28;20204;-52
2023/05/02 08:49:19;;;;;;;5.00;1.50;;;9.00;99.90;;;;;;5069318;28;20198;-46
2023/05/02 08:51:50;;;;;;;6.27;1.47;;;9.00;99.90;;;;;;5081438;28;20217;-51
2023/05/02 08:54:18;;;;;;;2.27;1.23;;;9.00;99.90;;;;;;5072671;28;20194;-53
2023/05/02 08:56:45;;;;;;;6.60;1.60;;;9.00;99.90;;;;;;5077027;28;20217;-55
2023/05/02 08:59:14;;;;;;;3.90;1.33;;;9.00;99.90;;;;;;5066928;28;20198;-52
2023/05/02 09:01:44;;;;;;;4.30;1.33;;;9.10;99.90;;;;;;5065622;28;20221;-56
2023/05/02 09:04:11;;;;;;;7.37;1.63;;;9.20;99.90;;;;;;5058545;28;20202;-50
2023/05/02 09:06:38;;;;;;;4.33;1.60;;;9.20;99.90;;;;;;5082469;28;20577;-53
2023/05/02 09:09:05;;;;;;;7.43;1.30;;;9.20;99.90;;;;;;5069252;28;20200;-51
2023/05/02 09:11:32;;;;;;;7.07;1.40;;;9.20;99.90;;;;;;5074994;28;20425;-53
2023/05/02 09:14:02;;;;;;;6.37;1.30;;;9.30;99.90;;;;;;5059443;28;20190;-50
2023/05/02 09:16:38;;;;;;;3.57;1.20;;;9.40;99.90;;;;;;5059282;28;20220;-52
2023/05/02 09:19:05;;;;;;;4.03;1.43;;;9.40;99.90;;;;;;5057985;28;20896;-46
2023/05/02 09:21:36;;;;;;;4.13;2.40;;;9.40;99.90;;;;;;5076959;28;20460;-51
2023/05/02 09:24:15;;;;;;;3.50;1.93;;;9.50;99.90;;;;;;5075308;28;20210;-54
2023/05/02 09:26:55;;;;;;;7.67;1.93;;;9.60;99.90;;;;;;5073739;28;20233;-51
2023/05/02 09:29:23;;;;;;;5.97;1.60;;;9.60;99.90;;;;;;5064294;28;20250;-51
2023/05/02 09:31:52;;;;;;;5.57;1.27;;;9.80;99.90;;;;;;5060372;28;20271;-52
2023/05/02 09:34:19;;;;;;;2.87;1.20;;;9.80;99.90;;;;;;5057062;28;20288;-48
2023/05/02 09:36:49;;;;;;;1.80;1.47;;;9.90;99.90;;;;;;5077859;28;20278;-53
2023/05/02 09:39:17;;;;;;;5.07;1.30;;;9.90;99.90;;;;;;5077476;28;20585;-52
2023/05/02 09:41:45;;;;;;;5.10;1.30;;;10.00;99.90;;;;;;5068941;28;20213;-54
2023/05/02 09:44:14;;;;;;;2.30;1.20;;;10.00;99.90;;;;;;5077318;28;20202;-54
2023/05/02 09:46:41;;;;;;;8.70;1.13;;;10.10;99.90;;;;;;5059364;28;20237;-56
2023/05/02 09:49:09;;;;;;;2.27;1.13;;;10.00;99.90;;;;;;5075083;28;20190;-49
2023/05/02 09:51:36;;;;;;;3.17;0.93;;;10.00;99.90;;;;;;5066667;28;20193;-48
2023/05/02 09:54:03;;;;;;;3.73;1.17;;;9.90;99.90;;;;;;5077115;28;20228;-51
2023/05/02 09:56:30;;;;;;;1.57;1.10;;;9.90;99.90;;;;;;5071354;28;20224;-45
2023/05/02 09:59:13;;;;;;;4.17;1.70;;;9.90;99.90;;;;;;5063808;28;20220;-51
2023/05/02 10:01:41;;;;;;;3.40;1.07;;;10.00;99.90;;;;;;5071160;28;20232;-53
2023/05/02 10:04:15;;;;;;;4.60;1.10;;;10.20;99.90;;;;;;5072312;28;20213;-53
2023/05/02 10:06:43;;;;;;;5.30;1.60;;;10.40;99.90;;;;;;5055464;28;20229;-51
2023/05/02 10:09:11;;;;;;;2.97;1.37;;;10.40;99.90;;;;;;5077466;28;20216;-50
2023/05/02 10:11:39;;;;;;;4.00;1.20;;;10.30;99.90;;;;;;5070782;28;20814;-55
2023/05/02 10:14:10;;;;;;;5.03;1.70;;;10.20;99.90;;;;;;5080554;28;20262;-53
2023/05/02 10:16:46;;;;;;;2.47;1.50;;;10.10;99.90;;;;;;5072194;28;20226;-51
2023/05/02 10:19:22;;;;;;;8.63;1.40;;;9.90;99.90;;;;;;5070312;28;20205;-52
2023/05/02 10:21:50;;;;;;;2.83;1.60;;;9.90;99.90;;;;;;5059273;28;20732;-51
2023/05/02 10:24:17;;;;;;;2.87;2.10;;;10.00;99.90;;;;;;5075061;28;20263;-52
2023/05/02 10:26:45;;;;;;;4.63;2.03;;;10.00;99.90;;;;;;5078757;28;20233;-55
2023/05/02 10:29:11;;;;;;;5.63;1.80;;;10.00;99.90;;;;;;5078001;28;20231;-49
2023/05/02 10:31:39;;;;;;;4.47;1.80;;;10.20;99.90;;;;;;5068927;28;20233;-48
2023/05/02 10:34:09;;;;;;;4.03;2.53;;;10.50;99.90;;;;;;5073663;28;20210;-53
2023/05/02 10:36:37;;;;;;;4.20;2.07;;;10.60;99.90;;;;;;5072593;28;20263;-50
2023/05/02 10:39:06;;;;;;;2.93;1.47;;;10.60;99.90;;;;;;5054717;28;20198;-52
2023/05/02 10:41:35;;;;;;;3.97;1.27;;;10.70;99.90;;;;;;5072738;28;20218;-54
2023/05/02 10:44:06;;;;;;;6.03;1.70;;;10.70;99.90;;;;;;5078373;28;20260;-50
2023/05/02 10:46:34;;;;;;;3.43;1.30;;;10.60;99.90;;;;;;5078509;28;20276;-54
2023/05/02 10:49:03;;;;;;;1.43;1.33;;;10.50;99.90;;;;;;5069512;28;21922;-52
2023/05/02 10:51:31;;;;;;;3.83;1.53;;;10.40;99.90;;;;;;5076729;28;20753;-53
2023/05/02 10:54:22;;;;;;;2.80;1.37;;;10.50;99.90;;;;;;5060275;28;20695;-52
2023/05/02 10:57:06;;;;;;;3.40;1.20;;;10.50;99.90;;;;;;5078795;28;20945;-49
2023/05/02 10:59:35;;;;;;;4.90;1.27;;;10.50;99.90;;;;;;5071244;28;20198;-54
2023/05/02 11:02:02;;;;;;;1.57;1.30;;;10.50;99.90;;;;;;5076941;28;20226;-49
2023/05/02 11:05:00;;;;;;;6.10;1.30;;;10.50;99.90;;;;;;5065437;28;20209;-55
2023/05/02 11:07:27;;;;;;;5.97;1.23;;;10.60;99.90;;;;;;5076907;28;20226;-54
2023/05/02 11:10:26;;;;;;;10.10;1.67;;;10.60;99.90;;;;;;5057083;28;20195;-48
2023/05/02 11:12:55;;;;;;;2.53;1.07;;;10.70;99.90;;;;;;5080783;28;20695;-54
2023/05/02 11:15:58;;;;;;;3.90;1.40;;;10.80;99.90;;;;;;5076907;28;20202;-52
2023/05/02 11:18:25;;;;;;;3.83;1.43;;;10.90;99.90;;;;;;5065729;28;20229;-52
2023/05/02 11:20:52;;;;;;;2.57;1.20;;;10.80;99.90;;;;;;5064262;28;20463;-49
2023/05/02 11:23:23;;;;;;;3.50;1.40;;;11.00;99.90;;;;;;5084853;28;20233;-50
2023/05/02 11:25:52;;;;;;;4.20;1.00;;;11.10;99.60;;;;;;5059878;28;20959;-49
2023/05/02 11:28:42;;;;;;;1.80;1.10;;;11.10;99.00;;;;;;5084254;28;20218;-46
2023/05/02 11:31:53;;;;;;;3.13;1.00;;;11.00;98.50;;;;;;5078045;28;20202;-48
2023/05/02 11:34:21;;;;;;;2.23;1.10;;;10.90;99.10;;;;;;5053050;28;20222;-47
2023/05/02 11:36:49;;;;;;;3.93;1.20;;;10.90;99.70;;;;;;5069483;28;21909;-46
2023/05/02 11:39:19;;;;;;;6.63;0.90;;;10.90;99.90;;;;;;5063528;28;20216;-46
2023/05/02 11:41:49;;;;;;;6.13;1.20;;;10.90;99.90;;;;;;5072933;28;20222;-47
2023/05/02 11:44:17;;;;;;;2.47;1.20;;;11.00;99.90;;;;;;5081742;28;20209;-53
2023/05/02 11:46:44;;;;;;;5.20;1.13;;;10.90;99.90;;;;;;5060801;28;20222;-49
2023/05/02 11:49:12;;;;;;;3.10;0.90;;;10.90;99.90;;;;;;5060626;28;20214;-47
2023/05/02 11:51:39;;;;;;;2.30;1.00;;;10.90;99.90;;;;;;5076254;28;20201;-51
2023/05/02 11:54:07;;;;;;;2.53;1.13;;;11.10;99.90;;;;;;5067931;28;20207;-46
2023/05/02 11:56:34;;;;;;;3.33;1.20;;;11.20;99.90;;;;;;5063536;28;20198;-57
2023/05/02 11:59:05;;;;;;;2.67;1.10;;;11.00;99.90;;;;;;5070503;28;20193;-52
2023/05/02 12:01:32;;;;;;;8.03;1.20;;;10.90;99.90;;;;;;5066267;28;20202;-57
2023/05/02 12:04:02;;;;;;;3.77;1.30;;;10.80;99.90;;;;;;5063711;28;20701;-46
2023/05/02 12:06:29;;;;;;;4.67;1.50;;;10.70;99.90;;;;;;5076015;28;20661;-56
2023/05/02 12:09:07;;;;;;;4.87;1.37;;;10.60;99.90;;;;;;5074651;28;20859;-48
2023/05/02 12:11:34;;;;;;;4.37;0.97;;;10.40;99.90;;;;;;5055017;28;20210;-54
2023/05/02 12:14:03;;;;;;;3.07;1.17;;;10.40;99.90;;;;;;5066045;28;20202;-54
2023/05/02 12:16:30;;;;;;;2.37;0.83;;;10.30;99.90;;;;;;5079120;28;20186;-56
2023/05/02 12:18:58;;;;;;;5.40;1.40;;;10.40;99.90;;;;;;5070214;28;20665;-49
2023/05/02 12:21:26;;;;;;;2.47;0.93;;;10.40;99.90;;;;;;5072979;28;20201;-53
2023/05/02 12:23:53;;;;;;;2.20;1.00;;;10.50;99.90;;;;;;5072531;28;20994;-52
2023/05/02 12:26:23;;;;;;;3.53;1.13;;;10.60;99.90;;;;;;5077489;28;20291;-53
2023/05/02 12:28:50;;;;;;;5.70;1.83;;;10.80;99.70;;;;;;5052652;28;20217;-53
2023/05/02 12:31:19;;;;;;;4.33;1.27;;;10.80;98.60;;;;;;5081351;28;20285;-47
2023/05/02 12:33:47;;;;;;;2.60;1.30;;;10.80;98.30;;;;;;5068357;28;20939;-46
2023/05/02 12:36:14;;;;;;;2.37;1.20;;;10.80;98.30;;;;;;5069890;28;20205;-50
2023/05/02 12:38:48;;;;;;;1.73;1.13;;;10.90;97.90;;;;;;5070411;28;20230;-58
2023/05/02 12:41:15;;;;;;;3.73;0.97;;;10.90;97.30;;;;;;5073639;28;20213;-53
2023/05/02 12:43:46;;;;;;;4.00;1.40;;;10.70;97.50;;;;;;5054867;28;20688;-54
2023/05/02 12:46:13;;;;;;;4.60;1.50;;;10.60;97.30;;;;;;5082747;28;20681;-50
2023/05/02 12:48:42;;;;;;;4.73;2.07;;;10.50;97.90;;;;;;5074256;28;20225;-55
2023/05/02 12:51:22;;;;;;;3.83;1.20;;;10.50;97.60;;;;;;5072063;28;20651;-56
2023/05/02 12:53:49;;;;;;;3.43;1.20;;;10.50;97.60;;;;;;5070103;28;20986;-55
2023/05/02 12:56:16;;;;;;;1.50;1.40;;;10.50;97.60;;;;;;5074637;28;20202;-53
2023/05/02 12:58:46;;;;;;;3.63;1.40;;;10.60;97.40;;;;;;5058901;28;20202;-51
2023/05/02 13:01:14;;;;;;;1.60;1.10;;;10.60;97.50;;;;;;5083035;28;20288;-53